sensor_id;sensor_type;location;lat;lon;timestamp;P1;durP1;ratioP1;P2;durP2;ratioP2
66927;SDS011;59882;45.624;11.698;2022-12-31T00:01:18;63.53;;;39.83;;
66927;SDS011;59882;45.624;11.698;2022-12-31T00:03:44;72.47;;;40.95;;
66927;SDS011;59882;45.624;11.698;2022-12-31T00:06:11;63.70;;;40.35;;
66927;SDS011;59882;45.624;11.698;2022-12-31T00:08:41;74.72;;;40.80;;
66927;SDS011;59882;45.624;11.698;2022-12-31T00:11:08;67.90;;;38.30;;
66927;SDS011;59882;45.624;11.698;2022-12-31T00:13:33;57.40;;;34.85;;
66927;SDS011;59882;45.624;11.698;2022-12-31T00:16:06;58.50;;;31.60;;
66927;SDS011;59882;45.624;11.698;2022-12-31T00:18:34;47.67;;;29.17;;
66927;SDS011;59882;45.624;11.698;2022-12-31T00:21:02;48.60;;;29.35;;
66927;SDS011;59882;45.624;11.698;2022-12-31T00:23:32;54.08;;;31.80;;
66927;SDS011;59882;45.624;11.698;2022-12-31T00:26:05;49.70;;;29.80;;
66927;SDS011;59882;45.624;11.698;2022-12-31T00:28:33;43.13;;;29.10;;
66927;SDS011;59882;45.624;11.698;2022-12-31T00:31:03;43.22;;;29.45;;
66927;SDS011;59882;45.624;11.698;2022-12-31T00:33:33;45.72;;;31.30;;
66927;SDS011;59882;45.624;11.698;2022-12-31T00:36:06;43.90;;;30.08;;
66927;SDS011;59882;45.624;11.698;2022-12-31T00:38:37;47.47;;;30.90;;
66927;SDS011;59882;45.624;11.698;2022-12-31T00:41:04;44.47;;;28.40;;
66927;SDS011;59882;45.624;11.698;2022-12-31T00:43:30;46.65;;;30.85;;
66927;SDS011;59882;45.624;11.698;2022-12-31T00:45:56;52.58;;;31.15;;
66927;SDS011;59882;45.624;11.698;2022-12-31T00:48:22;45.37;;;29.83;;
66927;SDS011;59882;45.624;11.698;2022-12-31T00:50:48;43.97;;;30.17;;
66927;SDS011;59882;45.624;11.698;2022-12-31T00:53:14;45.95;;;28.38;;
66927;SDS011;59882;45.624;11.698;2022-12-31T00:55:39;47.03;;;29.50;;
66927;SDS011;59882;45.624;11.698;2022-12-31T00:58:05;39.80;;;29.55;;
66927;SDS011;59882;45.624;11.698;2022-12-31T01:00:31;38.00;;;28.77;;
66927;SDS011;59882;45.624;11.698;2022-12-31T01:02:56;35.83;;;28.02;;
66927;SDS011;59882;45.624;11.698;2022-12-31T01:05:22;37.83;;;28.40;;
66927;SDS011;59882;45.624;11.698;2022-12-31T01:07:48;34.67;;;28.63;;
66927;SDS011;59882;45.624;11.698;2022-12-31T01:10:14;35.20;;;28.20;;
66927;SDS011;59882;45.624;11.698;2022-12-31T01:12:59;32.13;;;25.55;;
66927;SDS011;59882;45.624;11.698;2022-12-31T01:15:25;34.03;;;26.47;;
66927;SDS011;59882;45.624;11.698;2022-12-31T01:17:50;31.60;;;25.45;;
66927;SDS011;59882;45.624;11.698;2022-12-31T01:20:16;34.63;;;27.23;;
66927;SDS011;59882;45.624;11.698;2022-12-31T01:22:42;33.72;;;27.95;;
66927;SDS011;59882;45.624;11.698;2022-12-31T01:25:07;32.33;;;27.30;;
66927;SDS011;59882;45.624;11.698;2022-12-31T01:27:33;38.35;;;29.95;;
66927;SDS011;59882;45.624;11.698;2022-12-31T01:29:59;37.90;;;29.63;;
66927;SDS011;59882;45.624;11.698;2022-12-31T01:32:24;48.60;;;31.92;;
66927;SDS011;59882;45.624;11.698;2022-12-31T01:34:50;48.17;;;32.03;;
66927;SDS011;59882;45.624;11.698;2022-12-31T01:37:15;42.00;;;29.80;;
66927;SDS011;59882;45.624;11.698;2022-12-31T01:39:41;44.83;;;30.45;;
66927;SDS011;59882;45.624;11.698;2022-12-31T01:42:09;56.17;;;33.73;;
66927;SDS011;59882;45.624;11.698;2022-12-31T01:47:04;59.33;;;34.85;;
66927;SDS011;59882;45.624;11.698;2022-12-31T01:49:39;64.30;;;37.27;;
66927;SDS011;59882;45.624;11.698;2022-12-31T01:52:14;66.78;;;36.55;;
66927;SDS011;59882;45.624;11.698;2022-12-31T01:54:47;67.97;;;38.03;;
66927;SDS011;59882;45.624;11.698;2022-12-31T01:57:23;59.75;;;36.30;;
66927;SDS011;59882;45.624;11.698;2022-12-31T01:59:51;60.53;;;35.65;;
66927;SDS011;59882;45.624;11.698;2022-12-31T02:02:18;75.00;;;37.53;;
66927;SDS011;59882;45.624;11.698;2022-12-31T02:04:44;65.40;;;39.00;;
66927;SDS011;59882;45.624;11.698;2022-12-31T02:07:10;65.18;;;38.25;;
66927;SDS011;59882;45.624;11.698;2022-12-31T02:09:37;77.95;;;40.38;;
66927;SDS011;59882;45.624;11.698;2022-12-31T02:12:04;70.17;;;39.33;;
66927;SDS011;59882;45.624;11.698;2022-12-31T02:14:32;73.35;;;40.45;;
66927;SDS011;59882;45.624;11.698;2022-12-31T02:25:23;71.97;;;39.20;;
66927;SDS011;59882;45.624;11.698;2022-12-31T02:30:36;126.35;;;39.97;;
66927;SDS011;59882;45.624;11.698;2022-12-31T02:33:09;115.35;;;39.95;;
66927;SDS011;59882;45.624;11.698;2022-12-31T02:36:02;75.78;;;37.17;;
66927;SDS011;59882;45.624;11.698;2022-12-31T02:38:32;94.13;;;35.67;;
66927;SDS011;59882;45.624;11.698;2022-12-31T02:41:11;95.28;;;38.20;;
66927;SDS011;59882;45.624;11.698;2022-12-31T02:44:00;86.82;;;38.45;;
66927;SDS011;59882;45.624;11.698;2022-12-31T02:46:37;98.78;;;41.10;;
66927;SDS011;59882;45.624;11.698;2022-12-31T02:49:22;106.60;;;42.35;;
66927;SDS011;59882;45.624;11.698;2022-12-31T02:51:56;76.53;;;38.43;;
66927;SDS011;59882;45.624;11.698;2022-12-31T02:54:50;77.53;;;38.58;;
66927;SDS011;59882;45.624;11.698;2022-12-31T02:57:37;94.72;;;39.85;;
66927;SDS011;59882;45.624;11.698;2022-12-31T03:00:10;71.30;;;37.10;;
66927;SDS011;59882;45.624;11.698;2022-12-31T03:02:56;70.90;;;38.47;;
66927;SDS011;59882;45.624;11.698;2022-12-31T03:05:25;81.97;;;35.60;;
66927;SDS011;59882;45.624;11.698;2022-12-31T03:07:53;78.10;;;36.90;;
66927;SDS011;59882;45.624;11.698;2022-12-31T03:10:19;46.22;;;30.05;;
66927;SDS011;59882;45.624;11.698;2022-12-31T03:12:45;57.50;;;30.73;;
66927;SDS011;59882;45.624;11.698;2022-12-31T03:15:13;70.25;;;34.30;;
66927;SDS011;59882;45.624;11.698;2022-12-31T03:20:18;73.07;;;33.35;;
66927;SDS011;59882;45.624;11.698;2022-12-31T03:23:05;59.80;;;35.25;;
66927;SDS011;59882;45.624;11.698;2022-12-31T03:25:32;60.70;;;34.30;;
66927;SDS011;59882;45.624;11.698;2022-12-31T03:28:07;72.03;;;36.80;;
66927;SDS011;59882;45.624;11.698;2022-12-31T03:30:38;66.53;;;36.42;;
66927;SDS011;59882;45.624;11.698;2022-12-31T03:33:06;72.30;;;34.53;;
66927;SDS011;59882;45.624;11.698;2022-12-31T03:35:33;63.88;;;35.95;;
66927;SDS011;59882;45.624;11.698;2022-12-31T03:38:00;78.93;;;33.80;;
66927;SDS011;59882;45.624;11.698;2022-12-31T03:40:27;77.05;;;34.50;;
66927;SDS011;59882;45.624;11.698;2022-12-31T03:42:54;68.90;;;33.13;;
66927;SDS011;59882;45.624;11.698;2022-12-31T03:45:20;108.68;;;32.78;;
66927;SDS011;59882;45.624;11.698;2022-12-31T03:47:47;79.93;;;32.53;;
66927;SDS011;59882;45.624;11.698;2022-12-31T03:50:13;79.68;;;32.83;;
66927;SDS011;59882;45.624;11.698;2022-12-31T03:52:40;59.67;;;29.65;;
66927;SDS011;59882;45.624;11.698;2022-12-31T03:55:09;90.47;;;29.80;;
66927;SDS011;59882;45.624;11.698;2022-12-31T03:57:35;86.68;;;29.70;;
66927;SDS011;59882;45.624;11.698;2022-12-31T04:00:03;70.18;;;29.58;;
66927;SDS011;59882;45.624;11.698;2022-12-31T04:02:30;95.82;;;27.75;;
66927;SDS011;59882;45.624;11.698;2022-12-31T04:04:56;64.97;;;27.13;;
66927;SDS011;59882;45.624;11.698;2022-12-31T04:07:22;60.80;;;26.63;;
66927;SDS011;59882;45.624;11.698;2022-12-31T04:09:47;48.17;;;27.27;;
66927;SDS011;59882;45.624;11.698;2022-12-31T04:12:13;51.90;;;27.90;;
66927;SDS011;59882;45.624;11.698;2022-12-31T04:14:39;42.40;;;27.57;;
66927;SDS011;59882;45.624;11.698;2022-12-31T04:17:04;54.20;;;26.40;;
66927;SDS011;59882;45.624;11.698;2022-12-31T04:19:30;47.77;;;26.53;;
66927;SDS011;59882;45.624;11.698;2022-12-31T04:21:56;49.28;;;24.25;;
66927;SDS011;59882;45.624;11.698;2022-12-31T04:24:21;52.80;;;26.27;;
66927;SDS011;59882;45.624;11.698;2022-12-31T04:26:47;43.75;;;25.88;;
66927;SDS011;59882;45.624;11.698;2022-12-31T04:29:13;48.37;;;25.43;;
66927;SDS011;59882;45.624;11.698;2022-12-31T04:31:38;43.13;;;24.90;;
66927;SDS011;59882;45.624;11.698;2022-12-31T04:34:04;57.58;;;26.45;;
66927;SDS011;59882;45.624;11.698;2022-12-31T04:36:30;45.93;;;27.37;;
66927;SDS011;59882;45.624;11.698;2022-12-31T04:38:56;59.40;;;27.13;;
66927;SDS011;59882;45.624;11.698;2022-12-31T04:41:21;38.95;;;25.98;;
66927;SDS011;59882;45.624;11.698;2022-12-31T04:46:18;51.95;;;26.77;;
66927;SDS011;59882;45.624;11.698;2022-12-31T04:48:48;48.13;;;25.58;;
66927;SDS011;59882;45.624;11.698;2022-12-31T04:51:14;46.50;;;26.08;;
66927;SDS011;59882;45.624;11.698;2022-12-31T04:53:40;48.00;;;24.43;;
66927;SDS011;59882;45.624;11.698;2022-12-31T04:56:06;41.65;;;26.38;;
66927;SDS011;59882;45.624;11.698;2022-12-31T04:58:33;42.22;;;26.30;;
66927;SDS011;59882;45.624;11.698;2022-12-31T05:00:59;41.85;;;24.75;;
66927;SDS011;59882;45.624;11.698;2022-12-31T05:03:25;38.17;;;24.37;;
66927;SDS011;59882;45.624;11.698;2022-12-31T05:05:51;44.40;;;24.17;;
66927;SDS011;59882;45.624;11.698;2022-12-31T05:08:18;41.97;;;23.20;;
66927;SDS011;59882;45.624;11.698;2022-12-31T05:10:47;37.35;;;23.90;;
66927;SDS011;59882;45.624;11.698;2022-12-31T05:13:13;43.27;;;23.80;;
66927;SDS011;59882;45.624;11.698;2022-12-31T05:15:39;37.10;;;23.90;;
66927;SDS011;59882;45.624;11.698;2022-12-31T05:18:05;35.15;;;23.30;;
66927;SDS011;59882;45.624;11.698;2022-12-31T05:20:32;38.72;;;24.17;;
66927;SDS011;59882;45.624;11.698;2022-12-31T05:22:58;36.57;;;24.03;;
66927;SDS011;59882;45.624;11.698;2022-12-31T05:25:23;31.98;;;22.65;;
66927;SDS011;59882;45.624;11.698;2022-12-31T05:27:49;30.47;;;22.40;;
66927;SDS011;59882;45.624;11.698;2022-12-31T05:30:15;30.60;;;22.02;;
66927;SDS011;59882;45.624;11.698;2022-12-31T05:32:42;30.47;;;22.73;;
66927;SDS011;59882;45.624;11.698;2022-12-31T05:35:08;30.13;;;23.10;;
66927;SDS011;59882;45.624;11.698;2022-12-31T05:37:34;30.17;;;23.27;;
66927;SDS011;59882;45.624;11.698;2022-12-31T05:40:00;31.47;;;22.37;;
66927;SDS011;59882;45.624;11.698;2022-12-31T05:42:26;30.65;;;22.67;;
66927;SDS011;59882;45.624;11.698;2022-12-31T05:44:51;30.57;;;22.63;;
66927;SDS011;59882;45.624;11.698;2022-12-31T05:47:17;30.43;;;23.17;;
66927;SDS011;59882;45.624;11.698;2022-12-31T05:49:43;32.13;;;22.97;;
66927;SDS011;59882;45.624;11.698;2022-12-31T05:52:09;30.73;;;22.75;;
66927;SDS011;59882;45.624;11.698;2022-12-31T05:54:34;30.53;;;23.17;;
66927;SDS011;59882;45.624;11.698;2022-12-31T05:57:00;33.25;;;22.45;;
66927;SDS011;59882;45.624;11.698;2022-12-31T05:59:26;29.35;;;22.45;;
66927;SDS011;59882;45.624;11.698;2022-12-31T06:01:52;29.53;;;21.83;;
66927;SDS011;59882;45.624;11.698;2022-12-31T06:04:18;30.50;;;23.30;;
66927;SDS011;59882;45.624;11.698;2022-12-31T06:06:43;31.60;;;23.50;;
66927;SDS011;59882;45.624;11.698;2022-12-31T06:09:09;30.42;;;23.02;;
66927;SDS011;59882;45.624;11.698;2022-12-31T06:11:35;30.87;;;23.17;;
66927;SDS011;59882;45.624;11.698;2022-12-31T06:14:00;32.10;;;23.98;;
66927;SDS011;59882;45.624;11.698;2022-12-31T06:16:26;35.63;;;23.90;;
66927;SDS011;59882;45.624;11.698;2022-12-31T06:18:52;37.42;;;24.77;;
66927;SDS011;59882;45.624;11.698;2022-12-31T06:21:18;36.60;;;25.03;;
66927;SDS011;59882;45.624;11.698;2022-12-31T06:23:45;34.57;;;23.63;;
66927;SDS011;59882;45.624;11.698;2022-12-31T06:26:12;37.53;;;25.15;;
66927;SDS011;59882;45.624;11.698;2022-12-31T06:28:38;40.03;;;25.00;;
66927;SDS011;59882;45.624;11.698;2022-12-31T06:31:05;39.15;;;25.90;;
66927;SDS011;59882;45.624;11.698;2022-12-31T06:33:33;38.13;;;24.83;;
66927;SDS011;59882;45.624;11.698;2022-12-31T06:36:00;37.78;;;24.77;;
66927;SDS011;59882;45.624;11.698;2022-12-31T06:38:28;43.78;;;27.35;;
66927;SDS011;59882;45.624;11.698;2022-12-31T06:40:55;45.47;;;26.58;;
66927;SDS011;59882;45.624;11.698;2022-12-31T06:43:21;44.37;;;26.70;;
66927;SDS011;59882;45.624;11.698;2022-12-31T06:45:47;45.55;;;26.65;;
66927;SDS011;59882;45.624;11.698;2022-12-31T06:48:13;42.17;;;25.08;;
66927;SDS011;59882;45.624;11.698;2022-12-31T06:50:39;48.90;;;27.53;;
66927;SDS011;59882;45.624;11.698;2022-12-31T06:53:05;46.95;;;27.95;;
66927;SDS011;59882;45.624;11.698;2022-12-31T06:55:31;44.05;;;27.83;;
66927;SDS011;59882;45.624;11.698;2022-12-31T06:57:57;44.17;;;26.13;;
66927;SDS011;59882;45.624;11.698;2022-12-31T07:00:23;52.67;;;27.73;;
66927;SDS011;59882;45.624;11.698;2022-12-31T07:05:55;47.80;;;25.95;;
66927;SDS011;59882;45.624;11.698;2022-12-31T07:19:58;36.05;;;25.00;;
66927;SDS011;59882;45.624;11.698;2022-12-31T07:22:38;36.07;;;24.80;;
66927;SDS011;59882;45.624;11.698;2022-12-31T07:25:04;38.10;;;26.55;;
66927;SDS011;59882;45.624;11.698;2022-12-31T07:30:10;39.15;;;27.63;;
66927;SDS011;59882;45.624;11.698;2022-12-31T07:48:35;49.07;;;33.50;;
66927;SDS011;59882;45.624;11.698;2022-12-31T07:51:01;52.60;;;37.30;;
66927;SDS011;59882;45.624;11.698;2022-12-31T07:53:27;56.53;;;40.22;;
66927;SDS011;59882;45.624;11.698;2022-12-31T07:55:54;41.42;;;27.70;;
66927;SDS011;59882;45.624;11.698;2022-12-31T08:01:12;35.70;;;25.63;;
66927;SDS011;59882;45.624;11.698;2022-12-31T08:06:10;94.43;;;47.15;;
66927;SDS011;59882;45.624;11.698;2022-12-31T08:08:57;56.72;;;33.53;;
66927;SDS011;59882;45.624;11.698;2022-12-31T08:14:20;35.65;;;26.02;;
66927;SDS011;59882;45.624;11.698;2022-12-31T08:16:46;135.45;;;66.00;;
66927;SDS011;59882;45.624;11.698;2022-12-31T08:19:20;67.65;;;39.22;;
66927;SDS011;59882;45.624;11.698;2022-12-31T08:24:54;32.75;;;24.00;;
66927;SDS011;59882;45.624;11.698;2022-12-31T08:27:36;30.80;;;21.92;;
66927;SDS011;59882;45.624;11.698;2022-12-31T08:30:14;28.45;;;22.50;;
66927;SDS011;59882;45.624;11.698;2022-12-31T08:38:26;32.78;;;22.75;;
66927;SDS011;59882;45.624;11.698;2022-12-31T08:43:40;36.78;;;25.42;;
66927;SDS011;59882;45.624;11.698;2022-12-31T08:46:42;35.55;;;24.13;;
66927;SDS011;59882;45.624;11.698;2022-12-31T08:49:20;36.33;;;25.53;;
66927;SDS011;59882;45.624;11.698;2022-12-31T08:51:46;31.70;;;25.08;;
66927;SDS011;59882;45.624;11.698;2022-12-31T08:54:11;34.60;;;26.35;;
66927;SDS011;59882;45.624;11.698;2022-12-31T09:07:48;29.08;;;21.75;;
66927;SDS011;59882;45.624;11.698;2022-12-31T09:10:38;33.83;;;24.83;;
66927;SDS011;59882;45.624;11.698;2022-12-31T09:13:23;30.65;;;22.02;;
66927;SDS011;59882;45.624;11.698;2022-12-31T09:16:05;35.63;;;26.20;;
66927;SDS011;59882;45.624;11.698;2022-12-31T09:18:42;34.88;;;25.73;;
66927;SDS011;59882;45.624;11.698;2022-12-31T09:21:12;39.37;;;27.73;;
66927;SDS011;59882;45.624;11.698;2022-12-31T09:23:39;39.97;;;29.60;;
66927;SDS011;59882;45.624;11.698;2022-12-31T09:29:02;29.85;;;22.90;;
66927;SDS011;59882;45.624;11.698;2022-12-31T09:31:53;31.92;;;21.88;;
66927;SDS011;59882;45.624;11.698;2022-12-31T09:34:33;29.73;;;22.00;;
66927;SDS011;59882;45.624;11.698;2022-12-31T09:37:28;31.48;;;20.98;;
66927;SDS011;59882;45.624;11.698;2022-12-31T09:51:31;30.85;;;22.13;;
66927;SDS011;59882;45.624;11.698;2022-12-31T09:54:26;29.35;;;22.02;;
66927;SDS011;59882;45.624;11.698;2022-12-31T09:57:15;29.63;;;22.58;;
66927;SDS011;59882;45.624;11.698;2022-12-31T09:59:59;30.58;;;21.98;;
66927;SDS011;59882;45.624;11.698;2022-12-31T10:05:30;25.73;;;20.67;;
66927;SDS011;59882;45.624;11.698;2022-12-31T10:08:12;27.33;;;20.10;;
66927;SDS011;59882;45.624;11.698;2022-12-31T10:19:16;27.02;;;19.67;;
66927;SDS011;59882;45.624;11.698;2022-12-31T10:30:23;23.13;;;16.40;;
66927;SDS011;59882;45.624;11.698;2022-12-31T11:03:38;25.75;;;19.80;;
66927;SDS011;59882;45.624;11.698;2022-12-31T11:12:05;25.30;;;16.60;;
66927;SDS011;59882;45.624;11.698;2022-12-31T11:23:35;27.52;;;18.85;;
66927;SDS011;59882;45.624;11.698;2022-12-31T11:31:22;27.92;;;19.65;;
66927;SDS011;59882;45.624;11.698;2022-12-31T11:37:02;31.42;;;21.00;;
66927;SDS011;59882;45.624;11.698;2022-12-31T11:39:48;28.73;;;20.23;;
66927;SDS011;59882;45.624;11.698;2022-12-31T11:50:54;35.53;;;22.95;;
66927;SDS011;59882;45.624;11.698;2022-12-31T11:53:35;25.63;;;18.10;;
66927;SDS011;59882;45.624;11.698;2022-12-31T11:56:24;27.75;;;17.42;;
66927;SDS011;59882;45.624;11.698;2022-12-31T11:58:56;24.77;;;17.52;;
66927;SDS011;59882;45.624;11.698;2022-12-31T12:03:59;26.60;;;17.55;;
66927;SDS011;59882;45.624;11.698;2022-12-31T12:06:27;25.10;;;19.05;;
66927;SDS011;59882;45.624;11.698;2022-12-31T12:08:55;27.87;;;20.40;;
66927;SDS011;59882;45.624;11.698;2022-12-31T12:11:26;32.42;;;23.25;;
66927;SDS011;59882;45.624;11.698;2022-12-31T12:13:56;32.38;;;22.42;;
66927;SDS011;59882;45.624;11.698;2022-12-31T12:16:21;29.02;;;21.70;;
66927;SDS011;59882;45.624;11.698;2022-12-31T12:18:50;31.98;;;22.58;;
66927;SDS011;59882;45.624;11.698;2022-12-31T12:21:44;29.57;;;22.50;;
66927;SDS011;59882;45.624;11.698;2022-12-31T12:24:24;30.98;;;22.83;;
66927;SDS011;59882;45.624;11.698;2022-12-31T12:26:51;30.20;;;22.35;;
66927;SDS011;59882;45.624;11.698;2022-12-31T12:29:28;31.00;;;24.05;;
66927;SDS011;59882;45.624;11.698;2022-12-31T12:31:57;34.00;;;23.60;;
66927;SDS011;59882;45.624;11.698;2022-12-31T12:34:27;28.90;;;21.83;;
66927;SDS011;59882;45.624;11.698;2022-12-31T12:36:58;29.40;;;22.50;;
66927;SDS011;59882;45.624;11.698;2022-12-31T12:39:26;29.48;;;22.50;;
66927;SDS011;59882;45.624;11.698;2022-12-31T12:44:27;29.03;;;21.13;;
66927;SDS011;59882;45.624;11.698;2022-12-31T12:46:53;25.13;;;19.05;;
66927;SDS011;59882;45.624;11.698;2022-12-31T13:00:21;39.17;;;27.60;;
66927;SDS011;59882;45.624;11.698;2022-12-31T13:03:12;36.17;;;28.35;;
66927;SDS011;59882;45.624;11.698;2022-12-31T13:05:50;34.20;;;25.60;;
66927;SDS011;59882;45.624;11.698;2022-12-31T13:22:04;28.13;;;19.87;;
66927;SDS011;59882;45.624;11.698;2022-12-31T13:27:34;27.98;;;22.58;;
66927;SDS011;59882;45.624;11.698;2022-12-31T13:30:05;27.07;;;20.60;;
66927;SDS011;59882;45.624;11.698;2022-12-31T13:32:52;27.05;;;20.80;;
66927;SDS011;59882;45.624;11.698;2022-12-31T13:35:37;29.27;;;22.75;;
66927;SDS011;59882;45.624;11.698;2022-12-31T13:38:25;30.85;;;20.60;;
66927;SDS011;59882;45.624;11.698;2022-12-31T13:46:16;29.65;;;20.15;;
66927;SDS011;59882;45.624;11.698;2022-12-31T13:48:45;26.50;;;19.20;;
66927;SDS011;59882;45.624;11.698;2022-12-31T13:51:40;27.77;;;20.27;;
66927;SDS011;59882;45.624;11.698;2022-12-31T13:57:41;28.93;;;21.13;;
66927;SDS011;59882;45.624;11.698;2022-12-31T14:00:32;37.15;;;25.13;;
66927;SDS011;59882;45.624;11.698;2022-12-31T14:03:05;32.33;;;22.92;;
66927;SDS011;59882;45.624;11.698;2022-12-31T14:05:35;28.63;;;21.13;;
66927;SDS011;59882;45.624;11.698;2022-12-31T14:08:07;31.08;;;21.83;;
66927;SDS011;59882;45.624;11.698;2022-12-31T14:10:43;29.90;;;20.93;;
66927;SDS011;59882;45.624;11.698;2022-12-31T14:13:25;29.27;;;21.80;;
66927;SDS011;59882;45.624;11.698;2022-12-31T14:16:10;29.75;;;20.95;;
66927;SDS011;59882;45.624;11.698;2022-12-31T14:21:35;30.20;;;21.23;;
66927;SDS011;59882;45.624;11.698;2022-12-31T14:27:31;33.22;;;22.30;;
66927;SDS011;59882;45.624;11.698;2022-12-31T14:32:41;35.95;;;24.05;;
66927;SDS011;59882;45.624;11.698;2022-12-31T14:35:35;36.45;;;23.95;;
66927;SDS011;59882;45.624;11.698;2022-12-31T14:38:20;32.37;;;23.03;;
66927;SDS011;59882;45.624;11.698;2022-12-31T14:47:05;32.08;;;23.60;;
66927;SDS011;59882;45.624;11.698;2022-12-31T14:50:05;31.88;;;23.08;;
66927;SDS011;59882;45.624;11.698;2022-12-31T14:52:47;35.03;;;22.90;;
66927;SDS011;59882;45.624;11.698;2022-12-31T14:57:58;34.28;;;25.00;;
66927;SDS011;59882;45.624;11.698;2022-12-31T15:03:56;33.63;;;26.13;;
66927;SDS011;59882;45.624;11.698;2022-12-31T15:23:21;44.38;;;31.10;;
66927;SDS011;59882;45.624;11.698;2022-12-31T15:25:51;39.45;;;29.98;;
66927;SDS011;59882;45.624;11.698;2022-12-31T15:28:42;40.42;;;30.60;;
66927;SDS011;59882;45.624;11.698;2022-12-31T15:31:14;45.05;;;30.85;;
66927;SDS011;59882;45.624;11.698;2022-12-31T15:34:21;43.77;;;31.30;;
66927;SDS011;59882;45.624;11.698;2022-12-31T15:36:53;43.13;;;30.33;;
66927;SDS011;59882;45.624;11.698;2022-12-31T15:39:42;47.60;;;32.80;;
66927;SDS011;59882;45.624;11.698;2022-12-31T15:45:13;52.05;;;35.63;;
66927;SDS011;59882;45.624;11.698;2022-12-31T15:47:57;52.23;;;35.93;;
66927;SDS011;59882;45.624;11.698;2022-12-31T15:50:25;56.72;;;36.65;;
66927;SDS011;59882;45.624;11.698;2022-12-31T15:52:53;53.95;;;36.95;;
66927;SDS011;59882;45.624;11.698;2022-12-31T15:55:25;53.35;;;35.90;;
66927;SDS011;59882;45.624;11.698;2022-12-31T15:57:52;45.63;;;34.25;;
66927;SDS011;59882;45.624;11.698;2022-12-31T16:00:22;44.20;;;34.10;;
66927;SDS011;59882;45.624;11.698;2022-12-31T16:02:49;39.97;;;30.30;;
66927;SDS011;59882;45.624;11.698;2022-12-31T16:05:19;45.83;;;32.95;;
66927;SDS011;59882;45.624;11.698;2022-12-31T16:07:46;44.20;;;32.33;;
66927;SDS011;59882;45.624;11.698;2022-12-31T16:10:31;43.67;;;32.08;;
66927;SDS011;59882;45.624;11.698;2022-12-31T16:12:57;47.17;;;35.30;;
66927;SDS011;59882;45.624;11.698;2022-12-31T16:15:24;52.53;;;35.28;;
66927;SDS011;59882;45.624;11.698;2022-12-31T16:18:02;65.32;;;42.53;;
66927;SDS011;59882;45.624;11.698;2022-12-31T16:20:30;97.28;;;53.65;;
66927;SDS011;59882;45.624;11.698;2022-12-31T16:22:58;85.43;;;53.33;;
66927;SDS011;59882;45.624;11.698;2022-12-31T16:25:27;89.30;;;51.30;;
66927;SDS011;59882;45.624;11.698;2022-12-31T16:27:54;64.38;;;44.92;;
66927;SDS011;59882;45.624;11.698;2022-12-31T16:30:30;72.40;;;51.33;;
66927;SDS011;59882;45.624;11.698;2022-12-31T16:33:00;105.53;;;77.00;;
66927;SDS011;59882;45.624;11.698;2022-12-31T16:35:28;106.30;;;75.55;;
66927;SDS011;59882;45.624;11.698;2022-12-31T16:38:16;75.40;;;55.07;;
66927;SDS011;59882;45.624;11.698;2022-12-31T16:40:45;64.53;;;46.80;;
66927;SDS011;59882;45.624;11.698;2022-12-31T16:48:54;66.70;;;49.75;;
66927;SDS011;59882;45.624;11.698;2022-12-31T16:51:31;67.10;;;49.37;;
66927;SDS011;59882;45.624;11.698;2022-12-31T16:54:00;60.38;;;45.22;;
66927;SDS011;59882;45.624;11.698;2022-12-31T16:56:33;58.83;;;45.38;;
66927;SDS011;59882;45.624;11.698;2022-12-31T16:59:03;61.50;;;45.08;;
66927;SDS011;59882;45.624;11.698;2022-12-31T17:01:38;62.75;;;45.75;;
66927;SDS011;59882;45.624;11.698;2022-12-31T17:04:07;61.53;;;44.57;;
66927;SDS011;59882;45.624;11.698;2022-12-31T17:06:34;59.10;;;46.28;;
66927;SDS011;59882;45.624;11.698;2022-12-31T17:09:07;61.20;;;42.45;;
66927;SDS011;59882;45.624;11.698;2022-12-31T17:14:23;55.17;;;41.90;;
66927;SDS011;59882;45.624;11.698;2022-12-31T17:17:00;60.08;;;42.63;;
66927;SDS011;59882;45.624;11.698;2022-12-31T17:19:49;58.55;;;42.10;;
66927;SDS011;59882;45.624;11.698;2022-12-31T17:25:05;64.10;;;45.77;;
66927;SDS011;59882;45.624;11.698;2022-12-31T17:27:42;64.15;;;43.63;;
66927;SDS011;59882;45.624;11.698;2022-12-31T17:32:51;63.83;;;46.90;;
66927;SDS011;59882;45.624;11.698;2022-12-31T17:40:44;80.47;;;56.38;;
66927;SDS011;59882;45.624;11.698;2022-12-31T17:43:11;84.15;;;60.92;;
66927;SDS011;59882;45.624;11.698;2022-12-31T17:45:37;91.77;;;65.70;;
66927;SDS011;59882;45.624;11.698;2022-12-31T17:48:05;86.82;;;63.92;;
66927;SDS011;59882;45.624;11.698;2022-12-31T17:50:33;93.18;;;65.50;;
66927;SDS011;59882;45.624;11.698;2022-12-31T17:53:00;91.80;;;66.17;;
66927;SDS011;59882;45.624;11.698;2022-12-31T17:55:34;97.32;;;67.50;;
66927;SDS011;59882;45.624;11.698;2022-12-31T17:58:01;93.47;;;67.07;;
66927;SDS011;59882;45.624;11.698;2022-12-31T18:00:28;95.35;;;65.45;;
66927;SDS011;59882;45.624;11.698;2022-12-31T18:02:54;83.10;;;57.17;;
66927;SDS011;59882;45.624;11.698;2022-12-31T18:05:21;90.73;;;64.33;;
66927;SDS011;59882;45.624;11.698;2022-12-31T18:07:47;156.38;;;94.50;;
66927;SDS011;59882;45.624;11.698;2022-12-31T18:10:15;119.03;;;78.53;;
66927;SDS011;59882;45.624;11.698;2022-12-31T18:12:43;75.82;;;53.45;;
66927;SDS011;59882;45.624;11.698;2022-12-31T18:15:13;78.45;;;53.40;;
66927;SDS011;59882;45.624;11.698;2022-12-31T18:17:41;74.90;;;50.50;;
66927;SDS011;59882;45.624;11.698;2022-12-31T18:20:07;78.18;;;49.38;;
66927;SDS011;59882;45.624;11.698;2022-12-31T18:22:33;72.22;;;53.75;;
66927;SDS011;59882;45.624;11.698;2022-12-31T18:24:59;79.85;;;56.08;;
66927;SDS011;59882;45.624;11.698;2022-12-31T18:27:25;84.57;;;56.10;;
66927;SDS011;59882;45.624;11.698;2022-12-31T18:29:51;80.28;;;57.13;;
66927;SDS011;59882;45.624;11.698;2022-12-31T18:32:18;79.13;;;57.60;;
66927;SDS011;59882;45.624;11.698;2022-12-31T18:34:46;84.57;;;58.60;;
66927;SDS011;59882;45.624;11.698;2022-12-31T18:37:12;71.68;;;53.90;;
66927;SDS011;59882;45.624;11.698;2022-12-31T18:39:38;71.60;;;52.10;;
66927;SDS011;59882;45.624;11.698;2022-12-31T18:42:03;71.22;;;49.47;;
66927;SDS011;59882;45.624;11.698;2022-12-31T18:44:29;69.77;;;48.53;;
66927;SDS011;59882;45.624;11.698;2022-12-31T18:46:55;65.90;;;47.35;;
66927;SDS011;59882;45.624;11.698;2022-12-31T18:49:20;64.03;;;47.10;;
66927;SDS011;59882;45.624;11.698;2022-12-31T18:51:46;69.22;;;49.85;;
66927;SDS011;59882;45.624;11.698;2022-12-31T18:54:17;72.63;;;52.43;;
66927;SDS011;59882;45.624;11.698;2022-12-31T18:56:42;76.55;;;55.83;;
66927;SDS011;59882;45.624;11.698;2022-12-31T18:59:08;69.77;;;52.27;;
66927;SDS011;59882;45.624;11.698;2022-12-31T19:01:35;68.88;;;49.75;;
66927;SDS011;59882;45.624;11.698;2022-12-31T19:04:13;69.53;;;51.13;;
66927;SDS011;59882;45.624;11.698;2022-12-31T19:06:46;67.77;;;48.87;;
66927;SDS011;59882;45.624;11.698;2022-12-31T19:09:12;71.28;;;49.60;;
66927;SDS011;59882;45.624;11.698;2022-12-31T19:11:39;67.20;;;50.15;;